createdAt,value
2022-12-28T00:01:30.900Z,67442.94
2022-12-28T00:04:04.564Z,67429.09
2022-12-28T00:06:34.363Z,67462.16
2022-12-28T00:09:13.443Z,67459.31
2022-12-28T00:11:40.736Z,67473.56
2022-12-28T00:14:08.320Z,67431.63
2022-12-28T00:16:40.846Z,67475.09
2022-12-28T00:19:12.923Z,67488.78
2022-12-28T00:21:40.388Z,67476.22
2022-12-28T00:24:08.649Z,67473.19
2022-12-28T00:26:36.191Z,67486.72
2022-12-28T00:29:05.737Z,67479.25
2022-12-28T00:31:34.215Z,67474.91
2022-12-28T00:34:02.793Z,67471.50
2022-12-28T00:37:11.094Z,67453.34
2022-12-28T00:39:19.449Z,67452.91
2022-12-28T00:41:46.696Z,67458.72
2022-12-28T00:44:13.780Z,67440.19
2022-12-28T00:46:41.720Z,67443.72
2022-12-28T00:49:08.929Z,67458.19
2022-12-28T00:51:36.071Z,67462.91
2022-12-28T00:54:03.419Z,67450.13
2022-12-28T00:56:31.086Z,67452.72
2022-12-28T00:58:59.481Z,67459.31
2022-12-28T01:01:28.398Z,67461.56
2022-12-28T01:03:58.823Z,67461.75
2022-12-28T01:06:27.346Z,67466.78
2022-12-28T01:08:54.807Z,67458.78
2022-12-28T01:11:27.226Z,67458.91
2022-12-28T01:13:56.240Z,67446.38
2022-12-28T01:16:25.261Z,67440.19
2022-12-28T01:18:55.319Z,67435.09
2022-12-28T01:21:25.426Z,67428.56
2022-12-28T01:23:57.520Z,67434.91
2022-12-28T01:26:25.982Z,67437.72
2022-12-28T01:28:53.136Z,67446.72
2022-12-28T01:31:21.898Z,67429.28
2022-12-28T01:33:50.904Z,67437.72
2022-12-28T01:36:23.583Z,67439.22
2022-12-28T01:38:57.200Z,67441.88
2022-12-28T01:41:26.170Z,67445.81
2022-12-28T01:43:53.133Z,67444.69
2022-12-28T01:46:55.360Z,67412.59
2022-12-28T01:49:33.583Z,67426.31
2022-12-28T01:52:08.227Z,67410.50
2022-12-28T01:54:49.621Z,67396.06
2022-12-28T01:57:19.688Z,67394.03
2022-12-28T01:59:56.057Z,67391.00
2022-12-28T02:02:23.993Z,67383.34
2022-12-28T02:04:53.500Z,67376.94
2022-12-28T02:07:36.406Z,67390.09
2022-12-28T02:10:41.252Z,67390.63
2022-12-28T02:12:55.823Z,67376.56
2022-12-28T02:15:23.469Z,67388.03
2022-12-28T02:17:51.185Z,67398.50
2022-12-28T02:20:18.690Z,67400.56
2022-12-28T02:23:07.423Z,67402.66
2022-12-28T02:26:10.448Z,67411.47
2022-12-28T02:29:14.557Z,67402.44
2022-12-28T02:31:56.562Z,67385.38
2022-12-28T02:34:33.810Z,67393.47
2022-12-28T02:37:08.442Z,67385.59
2022-12-28T02:39:43.361Z,67388.75
2022-12-28T02:42:12.664Z,67366.09
2022-12-28T02:44:58.534Z,67363.44
2022-12-28T02:47:44.067Z,67359.13
2022-12-28T02:50:14.974Z,67376.56
2022-12-28T02:52:54.418Z,67373.56
2022-12-28T02:56:13.242Z,67365.69
2022-12-28T02:58:59.528Z,67355.56
2022-12-28T03:01:33.984Z,67326.50
2022-12-28T03:04:24.074Z,67317.06
2022-12-28T03:07:22.505Z,67296.13
2022-12-28T03:10:06.485Z,67315.06
2022-12-28T03:12:43.371Z,67316.72
2022-12-28T03:15:29.643Z,67350.84
2022-12-28T03:18:25.110Z,67359.13
2022-12-28T03:21:14.029Z,67360.81
2022-12-28T03:24:03.351Z,67354.28
2022-12-28T03:26:52.440Z,67364.34
2022-12-28T03:29:42.365Z,67370.75
2022-12-28T03:32:10.180Z,67393.25
2022-12-28T03:34:37.449Z,67407.53
2022-12-28T03:37:27.586Z,67428.16
2022-12-28T03:40:08.816Z,67423.09
2022-12-28T03:43:07.277Z,67428.72
2022-12-28T03:45:55.969Z,67416.91
2022-12-28T03:48:25.163Z,67399.44
2022-12-28T03:50:54.177Z,67403.38
2022-12-28T03:53:27.011Z,67408.25
2022-12-28T03:56:17.704Z,67412.38
2022-12-28T03:58:47.433Z,67408.81
2022-12-28T04:01:16.610Z,67398.31
2022-12-28T04:03:44.813Z,67397.75
2022-12-28T04:06:13.547Z,67392.31
2022-12-28T04:08:40.712Z,67397.19
2022-12-28T04:11:07.991Z,67394.56
2022-12-28T04:13:35.179Z,67392.31
2022-12-28T04:16:13.830Z,67391.22
2022-12-28T04:18:42.738Z,67388.56
2022-12-28T04:21:11.679Z,67387.06
2022-12-28T04:23:41.815Z,67396.25
2022-12-28T04:26:26.701Z,67397.00
2022-12-28T04:28:54.555Z,67405.63
2022-12-28T04:31:21.509Z,67406.19
2022-12-28T04:33:57.100Z,67416.91
2022-12-28T04:36:24.614Z,67413.72
2022-12-28T04:38:52.068Z,67425.16
2022-12-28T04:41:19.114Z,67414.28
2022-12-28T04:43:46.176Z,67420.06
2022-12-28T04:46:15.645Z,67424.41
2022-12-28T04:48:43.390Z,67424.06
2022-12-28T04:51:17.111Z,67421.59
2022-12-28T04:53:44.218Z,67415.41
2022-12-28T04:56:13.184Z,67409.56
2022-12-28T04:58:41.136Z,67412.19
2022-12-28T05:01:11.275Z,67408.44
2022-12-28T05:03:40.804Z,67416.31
2022-12-28T05:06:11.639Z,67420.47
2022-12-28T05:08:39.289Z,67424.78
2022-12-28T05:11:10.771Z,67397.75
2022-12-28T05:13:37.849Z,67387.63
2022-12-28T05:16:17.011Z,67379.75
2022-12-28T05:18:44.971Z,67379.19
2022-12-28T05:21:15.575Z,67377.84
2022-12-28T05:23:43.657Z,67376.56
2022-12-28T05:26:16.238Z,67375.25
2022-12-28T05:28:43.739Z,67366.81
2022-12-28T05:31:17.215Z,67371.66
2022-12-28T05:33:44.473Z,67367.56
2022-12-28T05:36:14.490Z,67376.94
2022-12-28T05:38:42.235Z,67379.97
2022-12-28T05:41:23.202Z,67386.50
2022-12-28T05:43:50.790Z,67384.25
2022-12-28T05:46:20.790Z,67388.94
2022-12-28T05:48:48.624Z,67397.19
2022-12-28T05:51:21.611Z,67400.00
2022-12-28T05:53:49.248Z,67400.22
2022-12-28T05:56:18.925Z,67400.00
2022-12-28T05:58:52.039Z,67425.91
2022-12-28T06:01:21.504Z,67431.53
2022-12-28T06:03:53.219Z,67433.44
2022-12-28T06:06:20.900Z,67448.22
2022-12-28T06:08:49.338Z,67441.31
2022-12-28T06:11:18.888Z,67432.09
2022-12-28T06:13:46.687Z,67434.00
2022-12-28T06:16:16.700Z,67443.16
2022-12-28T06:18:44.862Z,67436.97
2022-12-28T06:21:18.605Z,67426.47
2022-12-28T06:23:47.083Z,67435.47
2022-12-28T06:26:17.227Z,67433.22
2022-12-28T06:28:44.816Z,67434.00
2022-12-28T06:31:17.698Z,67445.41
2022-12-28T06:33:45.819Z,67440.75
2022-12-28T06:36:20.654Z,67451.59
2022-12-28T06:38:50.027Z,67451.44
2022-12-28T06:41:19.785Z,67462.84
2022-12-28T06:43:48.338Z,67463.41
2022-12-28T06:46:16.754Z,67477.34
2022-12-28T06:48:44.257Z,67476.94
2022-12-28T06:51:20.615Z,67467.00
2022-12-28T06:53:49.295Z,67464.41
2022-12-28T06:56:20.740Z,67478.28
2022-12-28T06:58:49.558Z,67472.28
2022-12-28T07:01:19.720Z,67490.09
2022-12-28T07:03:49.284Z,67494.25
2022-12-28T07:06:18.432Z,67493.28
2022-12-28T07:08:45.986Z,67497.63
2022-12-28T07:11:15.963Z,67503.25
2022-12-28T07:13:43.136Z,67506.59
2022-12-28T07:16:15.784Z,67521.09
2022-12-28T07:18:43.225Z,67526.72
2022-12-28T07:21:17.982Z,67526.34
2022-12-28T07:23:44.997Z,67532.91
2022-12-28T07:26:22.165Z,67538.19
2022-12-28T07:28:51.827Z,67552.63
2022-12-28T07:31:25.309Z,67559.97
2022-12-28T07:33:55.501Z,67571.78
2022-12-28T07:36:24.934Z,67578.16
2022-12-28T07:38:52.751Z,67572.56
2022-12-28T07:41:20.996Z,67589.84
2022-12-28T07:43:48.174Z,67580.81
2022-12-28T07:46:22.031Z,67577.78
2022-12-28T07:48:49.887Z,67583.63
2022-12-28T07:51:39.200Z,67579.91
2022-12-28T07:54:06.548Z,67585.69
2022-12-28T07:59:03.793Z,67597.19
2022-12-28T08:01:33.435Z,67602.25
2022-12-28T08:04:04.386Z,67604.69
2022-12-28T08:06:35.021Z,67614.63
2022-12-28T08:09:02.518Z,67610.91
2022-12-28T08:11:33.109Z,67617.81
2022-12-28T08:14:01.567Z,67609.75
2022-12-28T08:16:32.726Z,67619.94
2022-12-28T08:19:01.096Z,67620.47
2022-12-28T08:21:34.337Z,67628.19
2022-12-28T08:24:02.298Z,67624.78
2022-12-28T08:26:31.222Z,67627.97
2022-12-28T08:29:01.066Z,67647.69
2022-12-28T08:31:32.146Z,67655.44
2022-12-28T08:34:01.900Z,67679.50
2022-12-28T08:36:30.777Z,67675.53
2022-12-28T08:38:58.308Z,67676.31
2022-12-28T08:41:27.145Z,67673.28
2022-12-28T08:43:55.003Z,67678.94
2022-12-28T08:46:23.779Z,67691.56
2022-12-28T08:48:52.423Z,67708.81
2022-12-28T08:51:22.832Z,67737.59
2022-12-28T08:53:53.288Z,67748.53
2022-12-28T08:56:23.908Z,67763.56
2022-12-28T08:58:51.365Z,67775.06
2022-12-28T09:01:24.002Z,67773.22
2022-12-28T09:03:53.755Z,67797.25
2022-12-28T09:06:24.092Z,67787.84
2022-12-28T09:09:08.787Z,67792.38
2022-12-28T09:11:36.842Z,67803.28
2022-12-28T09:14:05.534Z,67812.50
2022-12-28T09:16:33.156Z,67813.25
2022-12-28T09:19:04.759Z,67826.03
2022-12-28T09:21:35.286Z,67824.19
2022-12-28T09:24:02.741Z,67832.47
2022-12-28T09:26:36.848Z,67843.41
2022-12-28T09:29:06.556Z,67843.75
2022-12-28T09:31:37.128Z,67844.88
2022-12-28T09:36:52.945Z,67857.53
2022-12-28T09:39:24.547Z,67876.38
2022-12-28T09:42:16.835Z,67881.25
2022-12-28T09:44:55.909Z,67887.28
2022-12-28T09:47:33.172Z,67900.84
2022-12-28T09:50:17.270Z,67889.38
2022-12-28T09:53:39.738Z,67890.84
2022-12-28T09:56:26.948Z,67879.19
2022-12-28T09:58:54.996Z,67879.00
2022-12-28T10:01:23.277Z,67879.94
2022-12-28T10:03:50.628Z,67900.84
2022-12-28T10:06:37.695Z,67885.56
2022-12-28T10:09:12.150Z,67898.75
2022-12-28T10:11:46.479Z,67888.41
2022-12-28T10:14:52.693Z,67887.47
2022-12-28T10:17:28.262Z,67883.50
2022-12-28T10:20:03.020Z,67890.28
2022-12-28T10:22:46.355Z,67903.47
2022-12-28T10:25:25.360Z,67906.50
2022-12-28T10:27:53.537Z,67897.66
2022-12-28T10:30:32.327Z,67918.34
2022-12-28T10:33:15.783Z,67926.25
2022-12-28T10:35:56.859Z,67924.75
2022-12-28T10:38:57.931Z,67938.13
2022-12-28T10:41:35.613Z,67953.22
2022-12-28T10:44:38.353Z,67949.06
2022-12-28T10:47:05.946Z,67969.41
2022-12-28T10:49:43.896Z,67970.56
2022-12-28T10:52:33.685Z,67965.09
2022-12-28T10:55:08.221Z,67951.41
2022-12-28T10:57:55.761Z,67962.06
2022-12-28T11:00:26.080Z,67963.19
2022-12-28T11:02:53.276Z,67958.28
2022-12-28T11:05:27.615Z,67972.22
2022-12-28T11:08:14.719Z,67965.06
2022-12-28T11:10:41.906Z,67955.28
2022-12-28T11:13:22.254Z,67950.00
2022-12-28T11:15:56.992Z,67973.19
2022-12-28T11:18:37.708Z,67954.16
2022-12-28T11:21:17.223Z,67972.03
2022-12-28T11:23:45.179Z,67973.75
2022-12-28T11:26:21.258Z,67972.81
2022-12-28T11:28:54.545Z,67976.59
2022-12-28T11:31:54.279Z,67976.78
2022-12-28T11:34:29.622Z,67973.94
2022-12-28T11:37:04.169Z,67984.69
2022-12-28T11:39:42.936Z,67976.78
2022-12-28T11:42:41.130Z,67989.75
2022-12-28T11:45:13.386Z,67995.41
2022-12-28T11:47:40.515Z,67995.78
2022-12-28T11:50:42.576Z,67998.63
2022-12-28T11:53:45.439Z,68015.22
2022-12-28T11:56:25.749Z,68021.81
2022-12-28T11:59:23.172Z,68004.84
2022-12-28T12:01:55.982Z,68003.69
2022-12-28T12:04:33.471Z,68007.66
2022-12-28T12:07:03.337Z,68007.88
2022-12-28T12:09:40.758Z,68016.72
2022-12-28T12:12:17.673Z,68018.59
2022-12-28T12:15:14.627Z,68029.16
2022-12-28T12:17:50.353Z,68027.09
2022-12-28T12:20:35.961Z,68018.41
2022-12-28T12:23:12.213Z,68015.00
2022-12-28T12:25:46.956Z,68021.81
2022-12-28T12:28:32.454Z,68018.97
2022-12-28T12:31:10.561Z,68026.88
2022-12-28T12:33:46.517Z,68016.16
2022-12-28T12:36:16.241Z,67998.44
2022-12-28T12:38:56.353Z,68015.19
2022-12-28T12:41:59.696Z,68010.50
2022-12-28T12:44:58.944Z,67999.56
2022-12-28T12:48:04.729Z,67981.84
2022-12-28T12:50:54.510Z,67978.66
2022-12-28T12:53:48.150Z,67989.19
2022-12-28T12:56:56.802Z,67975.06
2022-12-28T12:59:41.213Z,67982.03
2022-12-28T13:02:13.731Z,67982.97
2022-12-28T13:04:44.319Z,68000.13
2022-12-28T13:07:26.945Z,68011.81
2022-12-28T13:10:03.755Z,68002.97
2022-12-28T13:12:32.635Z,68000.31
2022-12-28T13:15:10.664Z,67999.19
2022-12-28T13:17:44.176Z,67998.25
2022-12-28T13:20:20.884Z,68005.78
2022-12-28T13:22:51.486Z,68005.59
2022-12-28T13:25:35.452Z,68015.41
2022-12-28T13:28:05.036Z,68003.91
2022-12-28T13:30:32.259Z,68018.22
2022-12-28T13:33:05.060Z,68007.66
2022-12-28T13:35:33.783Z,68010.13
2022-12-28T13:38:21.904Z,68008.03
2022-12-28T13:40:53.568Z,68000.50
2022-12-28T13:43:39.146Z,67996.94
2022-12-28T13:46:17.135Z,67997.47
2022-12-28T13:48:50.472Z,68003.50
2022-12-28T13:51:28.324Z,68010.66
2022-12-28T13:54:00.833Z,67991.28
2022-12-28T13:56:30.018Z,67990.53
2022-12-28T13:59:04.872Z,67979.59
2022-12-28T14:01:38.263Z,67989.19
2022-12-28T14:04:50.590Z,67983.91
2022-12-28T14:06:58.139Z,67975.06
2022-12-28T14:09:31.597Z,67986.19
2022-12-28T14:12:04.442Z,67991.09
2022-12-28T14:14:38.352Z,67973.38
2022-12-28T14:17:09.919Z,67958.88
2022-12-28T14:20:03.425Z,67980.72
2022-12-28T14:22:36.061Z,67981.28
2022-12-28T14:25:03.179Z,67969.97
2022-12-28T14:27:32.200Z,67971.31
2022-12-28T14:30:01.914Z,67973.38
2022-12-28T14:32:29.611Z,67980.72
2022-12-28T14:35:00.851Z,67992.38
2022-12-28T14:37:40.671Z,67995.22
2022-12-28T14:40:21.445Z,67988.63
2022-12-28T14:42:50.755Z,67984.13
2022-12-28T14:45:23.779Z,67998.41
2022-12-28T14:47:55.521Z,67990.13
2022-12-28T14:50:27.906Z,67989.38
2022-12-28T14:53:31.268Z,67974.47
2022-12-28T14:56:06.936Z,67981.09
2022-12-28T14:58:41.584Z,67978.25
2022-12-28T15:01:10.020Z,67982.97
2022-12-28T15:04:01.967Z,67982.97
2022-12-28T15:06:31.284Z,67997.69
2022-12-28T15:09:02.411Z,68003.69
2022-12-28T15:11:29.554Z,68015.75
2022-12-28T15:13:57.736Z,68002.00
2022-12-28T15:16:28.050Z,67961.31
2022-12-28T15:18:55.181Z,67963.94
2022-12-28T15:21:25.915Z,67980.16
2022-12-28T15:23:54.420Z,67982.97
2022-12-28T15:26:23.698Z,67978.81
2022-12-28T15:28:51.315Z,67978.09
2022-12-28T15:31:20.458Z,67981.28
2022-12-28T15:33:48.591Z,67997.31
2022-12-28T15:36:21.315Z,67987.09
2022-12-28T15:38:49.061Z,67985.81
2022-12-28T15:41:35.909Z,67989.75
2022-12-28T15:44:04.104Z,67983.34
2022-12-28T15:46:31.498Z,67986.38
2022-12-28T15:49:02.218Z,67970.56
2022-12-28T15:51:29.451Z,67988.81
2022-12-28T15:53:56.569Z,67991.84
2022-12-28T15:56:25.243Z,67985.25
2022-12-28T15:58:54.109Z,67974.50
2022-12-28T16:01:22.837Z,67978.09
2022-12-28T16:03:57.790Z,67987.69
2022-12-28T16:06:26.402Z,67976.78
2022-12-28T16:08:54.675Z,67965.25
2022-12-28T16:11:29.547Z,67962.63
2022-12-28T16:14:02.205Z,67978.09
2022-12-28T16:16:32.226Z,67969.97
2022-12-28T16:18:59.616Z,67976.78
2022-12-28T16:21:27.300Z,67976.19
2022-12-28T16:23:55.059Z,67958.09
2022-12-28T16:26:22.448Z,67975.63
2022-12-28T16:28:49.998Z,67964.91
2022-12-28T16:31:30.580Z,67962.44
2022-12-28T16:34:03.302Z,67965.84
2022-12-28T16:36:30.954Z,67950.19
2022-12-28T16:38:58.223Z,67950.75
2022-12-28T16:41:29.956Z,67953.38
2022-12-28T16:44:04.034Z,67939.25
2022-12-28T16:46:31.248Z,67940.59
2022-12-28T16:49:02.353Z,67937.19
2022-12-28T16:51:31.021Z,67948.31
2022-12-28T16:53:58.141Z,67950.38
2022-12-28T16:56:25.204Z,67946.25
2022-12-28T16:58:58.819Z,67949.44
2022-12-28T17:01:26.365Z,67942.66
2022-12-28T17:03:56.253Z,67925.88
2022-12-28T17:06:25.796Z,67934.75
2022-12-28T17:08:58.698Z,67934.16
2022-12-28T17:11:25.775Z,67936.06
2022-12-28T17:13:53.167Z,67926.66
2022-12-28T17:16:20.574Z,67923.06
2022-12-28T17:18:47.641Z,67934.16
2022-12-28T17:21:14.773Z,67921.38
2022-12-28T17:23:42.487Z,67930.41
2022-12-28T17:26:09.623Z,67924.56
2022-12-28T17:28:36.711Z,67930.41
2022-12-28T17:31:10.728Z,67917.97
2022-12-28T17:33:39.926Z,67914.59
2022-12-28T17:36:08.901Z,67916.66
2022-12-28T17:38:36.311Z,67915.56
2022-12-28T17:41:11.803Z,67911.97
2022-12-28T17:43:39.171Z,67906.66
2022-12-28T17:46:06.730Z,67909.50
2022-12-28T17:48:33.905Z,67898.00
2022-12-28T17:51:07.916Z,67903.84
2022-12-28T17:53:38.555Z,67926.25
2022-12-28T17:56:08.532Z,67917.97
2022-12-28T17:58:35.612Z,67916.84
2022-12-28T18:01:03.242Z,67909.69
2022-12-28T18:03:34.519Z,67912.31
2022-12-28T18:06:08.073Z,67912.91
2022-12-28T18:08:35.613Z,67933.78
2022-12-28T18:11:03.405Z,67934.38
2022-12-28T18:13:33.310Z,67934.94
2022-12-28T18:16:03.294Z,67936.44
2022-12-28T18:18:30.699Z,67939.25
2022-12-28T18:21:04.423Z,67922.50
2022-12-28T18:23:32.034Z,67942.66
2022-12-28T18:26:08.787Z,67936.63
2022-12-28T18:28:38.686Z,67933.22
2022-12-28T18:31:08.273Z,67931.91
2022-12-28T18:33:36.945Z,67931.53
2022-12-28T18:36:06.777Z,67932.69
2022-12-28T18:38:37.168Z,67930.41
2022-12-28T18:41:04.603Z,67945.28
2022-12-28T18:43:34.006Z,67921.75
2022-12-28T18:46:02.991Z,67923.84
2022-12-28T18:48:34.161Z,67933.59
2022-12-28T18:51:06.961Z,67925.88
2022-12-28T18:53:34.610Z,67918.75
2022-12-28T18:56:13.520Z,67934.75
2022-12-28T18:58:44.307Z,67953.97
2022-12-28T19:01:55.874Z,67954.91
2022-12-28T19:04:09.997Z,67952.81
2022-12-28T19:06:37.617Z,67950.19
2022-12-28T19:09:09.273Z,67960.38
2022-12-28T19:11:40.174Z,67971.69
2022-12-28T19:14:10.255Z,67967.16
2022-12-28T19:16:37.558Z,67961.66
2022-12-28T19:19:13.073Z,67956.78
2022-12-28T19:21:41.818Z,67951.88
2022-12-28T19:24:20.927Z,67938.88
2022-12-28T19:26:48.196Z,67942.28
2022-12-28T19:29:16.601Z,67934.94
2022-12-28T19:31:47.740Z,67931.34
2022-12-28T19:34:20.503Z,67924.03
2022-12-28T19:36:47.656Z,67920.59
2022-12-28T19:39:15.096Z,67917.78
2022-12-28T19:41:42.403Z,67921.94
2022-12-28T19:44:09.716Z,67919.50
2022-12-28T19:46:44.338Z,67917.97
2022-12-28T19:49:12.015Z,67919.50
2022-12-28T19:51:40.461Z,67916.84
2022-12-28T19:54:07.554Z,67924.56
2022-12-28T19:56:37.370Z,67914.41
2022-12-28T19:59:06.921Z,67914.03
2022-12-28T20:01:36.918Z,67919.66
2022-12-28T20:04:12.392Z,67913.84
2022-12-28T20:06:43.386Z,67914.59
2022-12-28T20:09:13.373Z,67926.06
2022-12-28T20:11:49.921Z,67918.34
2022-12-28T20:14:24.816Z,67906.31
2022-12-28T20:16:52.609Z,67917.22
2022-12-28T20:19:19.871Z,67918.91
2022-12-28T20:21:49.463Z,67920.81
2022-12-28T20:24:17.600Z,67924.19
2022-12-28T20:26:44.706Z,67929.28
2022-12-28T20:29:13.482Z,67928.31
2022-12-28T20:31:40.618Z,67920.59
2022-12-28T20:34:07.803Z,67911.75
2022-12-28T20:36:35.037Z,67906.13
2022-12-28T20:39:02.595Z,67904.41
2022-12-28T20:41:50.802Z,67901.38
2022-12-28T20:44:26.429Z,67902.38
2022-12-28T20:46:54.959Z,67907.41
2022-12-28T20:49:23.747Z,67895.38
2022-12-28T20:51:51.375Z,67898.75
2022-12-28T20:54:19.526Z,67906.88
2022-12-28T20:56:53.909Z,67915.72
2022-12-28T20:59:22.007Z,67908.38
2022-12-28T21:01:49.258Z,67918.34
2022-12-28T21:04:16.602Z,67909.28
2022-12-28T21:06:43.743Z,67910.44
2022-12-28T21:09:11.137Z,67896.72
2022-12-28T21:11:38.382Z,67896.09
2022-12-28T21:14:05.483Z,67890.66
2022-12-28T21:16:32.628Z,67871.47
2022-12-28T21:18:59.732Z,67859.59
2022-12-28T21:21:26.901Z,67847.13
2022-12-28T21:23:53.997Z,67841.69
2022-12-28T21:26:21.893Z,67845.44
2022-12-28T21:28:48.979Z,67844.31
2022-12-28T21:31:16.154Z,67846.94
2022-12-28T21:33:43.477Z,67835.13
2022-12-28T21:36:16.289Z,67837.75
2022-12-28T21:38:45.282Z,67837.38
2022-12-28T21:41:37.799Z,67838.88
2022-12-28T21:44:13.595Z,67835.84
2022-12-28T21:46:41.510Z,67834.34
2022-12-28T21:49:08.975Z,67840.38
2022-12-28T21:51:36.281Z,67834.91
2022-12-28T21:54:15.328Z,67837.53
2022-12-28T21:56:44.657Z,67836.06
2022-12-28T21:59:14.693Z,67832.09
2022-12-28T22:02:01.559Z,67830.00
2022-12-28T22:04:47.720Z,67832.47
2022-12-28T22:07:18.386Z,67835.09
2022-12-28T22:10:04.790Z,67833.19
2022-12-28T22:12:35.086Z,67842.25
2022-12-28T22:15:35.408Z,67845.06
2022-12-28T22:18:53.108Z,67849.63
2022-12-28T22:21:17.044Z,67856.19
2022-12-28T22:23:47.755Z,67858.47
2022-12-28T22:26:17.422Z,67853.56
2022-12-28T22:28:44.668Z,67853.75
2022-12-28T22:31:11.908Z,67836.06
2022-12-28T22:33:39.117Z,67843.94
2022-12-28T22:36:20.628Z,67842.06
2022-12-28T22:38:48.711Z,67844.50
2022-12-28T22:41:15.978Z,67872.56
2022-12-28T22:43:43.178Z,67876.53
2022-12-28T22:46:11.935Z,67887.84
2022-12-28T22:48:39.192Z,67899.13
2022-12-28T22:51:09.679Z,67897.28
2022-12-28T22:53:40.728Z,67912.31
2022-12-28T22:56:19.629Z,67912.31
2022-12-28T22:58:47.821Z,67918.34
2022-12-28T23:01:17.485Z,67914.03
2022-12-28T23:03:47.179Z,67893.75
2022-12-28T23:06:16.950Z,67927.03
2022-12-28T23:08:44.054Z,67934.94
2022-12-28T23:11:32.574Z,67946.25
2022-12-28T23:14:19.950Z,67960.94
2022-12-28T23:16:47.741Z,67961.50
2022-12-28T23:19:34.096Z,67953.59
2022-12-28T23:22:21.800Z,67968.25
2022-12-28T23:25:07.816Z,67966.03
2022-12-28T23:27:38.660Z,67963.75
2022-12-28T23:30:09.156Z,67972.59
2022-12-28T23:32:36.416Z,67972.59
2022-12-28T23:35:04.213Z,67976.94
2022-12-28T23:37:31.627Z,67973.94
2022-12-28T23:39:58.701Z,67965.47
2022-12-28T23:42:25.854Z,67960.38
2022-12-28T23:44:53.476Z,67965.47
2022-12-28T23:47:20.962Z,67964.31
2022-12-28T23:49:49.786Z,67967.34
2022-12-28T23:52:25.822Z,67977.16
2022-12-28T23:54:56.219Z,67964.69
2022-12-28T23:57:23.499Z,67970.56
2022-12-28T23:59:50.640Z,67986.56
